Time;durP1;ratioP1;P1;durP2;ratioP2;P2;SDS_P1;SDS_P2;PMS_P1;PMS_P2;Temp;Humidity;BMP_temperature;BMP_pressure;BME280_temperature;BME280_humidity;BME280_pressure;Samples;Min_cycle;Max_cycle;Signal;HPM_P1;HPM_P2
2023/09/02 00:01:48;;;;;;;10.13;3.00;;;18.10;1.00;;;;;;5013583;28;20629;-75
2023/09/02 00:04:13;;;;;;;5.43;2.40;;;18.10;1.00;;;;;;5013614;28;20690;-75
2023/09/02 00:06:39;;;;;;;6.93;3.07;;;18.10;1.00;;;;;;5013266;28;20225;-75
2023/09/02 00:09:05;;;;;;;7.70;2.60;;;18.10;1.00;;;;;;5013278;28;20339;-75
2023/09/02 00:11:30;;;;;;;9.13;2.80;;;18.10;1.00;;;;;;5013439;28;20218;-76
2023/09/02 00:13:56;;;;;;;15.80;2.93;;;18.10;1.00;;;;;;5013542;28;20197;-76
2023/09/02 00:16:21;;;;;;;6.70;2.70;;;18.00;1.00;;;;;;5013310;28;20195;-75
2023/09/02 00:18:47;;;;;;;5.10;2.77;;;18.00;1.00;;;;;;5013875;28;20194;-75
2023/09/02 00:21:13;;;;;;;15.30;3.60;;;;;;;;;;5013799;28;20213;-75
2023/09/02 00:23:45;;;;;;;10.13;3.30;;;17.90;1.00;;;;;;5012959;28;20561;-75
2023/09/02 00:26:11;;;;;;;10.20;3.33;;;17.90;1.00;;;;;;5013759;28;20838;-75
2023/09/02 00:28:36;;;;;;;5.40;2.80;;;17.90;1.00;;;;;;5013252;28;20426;-77
2023/09/02 00:31:01;;;;;;;7.50;2.70;;;17.80;1.00;;;;;;5013134;28;20190;-75
2023/09/02 00:33:27;;;;;;;6.33;2.83;;;17.90;1.00;;;;;;5009854;28;20210;-75
2023/09/02 00:35:52;;;;;;;5.03;2.63;;;17.80;1.00;;;;;;5013566;28;20194;-75
2023/09/02 00:38:18;;;;;;;7.67;3.20;;;17.80;1.00;;;;;;5011200;28;20303;-75
2023/09/02 00:40:51;;;;;;;8.07;3.47;;;17.80;1.00;;;;;;5013180;28;20264;-74
2023/09/02 00:43:17;;;;;;;5.50;3.10;;;17.80;1.00;;;;;;5013299;28;20281;-76
2023/09/02 00:45:43;;;;;;;10.90;2.63;;;17.80;1.00;;;;;;5012533;28;20568;-75
2023/09/02 00:48:09;;;;;;;6.20;2.57;;;17.80;1.00;;;;;;5013253;28;20538;-75
2023/09/02 00:50:35;;;;;;;4.83;2.83;;;17.80;1.00;;;;;;5013051;28;20430;-75
2023/09/02 00:53:00;;;;;;;3.40;2.70;;;17.80;1.00;;;;;;5012793;28;20609;-73
2023/09/02 00:55:26;;;;;;;5.50;3.20;;;17.70;1.00;;;;;;5012583;28;20429;-75
2023/09/02 00:57:52;;;;;;;7.00;2.93;;;;;;;;;;5011640;28;20264;-75
2023/09/02 01:00:18;;;;;;;10.40;3.10;;;17.70;1.00;;;;;;5011238;28;20186;-75
2023/09/02 01:02:45;;;;;;;6.40;2.63;;;17.70;1.00;;;;;;5011967;28;20524;-75
2023/09/02 01:05:11;;;;;;;6.17;3.07;;;17.80;1.00;;;;;;5012816;28;20194;-75
2023/09/02 01:07:37;;;;;;;9.23;3.17;;;17.70;1.00;;;;;;5012489;28;20440;-76
2023/09/02 01:10:04;;;;;;;6.87;2.87;;;17.70;1.00;;;;;;5008067;28;20278;-76
2023/09/02 01:12:30;;;;;;;10.70;3.30;;;17.60;1.00;;;;;;5008541;28;20468;-75
2023/09/02 01:14:56;;;;;;;5.63;2.93;;;17.70;1.00;;;;;;5012299;28;20445;-75
2023/09/02 01:17:21;;;;;;;5.50;2.60;;;17.40;1.00;;;;;;5012387;28;20429;-75
2023/09/02 01:19:50;;;;;;;4.23;2.77;;;17.30;1.00;;;;;;5012591;28;20190;-75
2023/09/02 01:22:32;;;;;;;6.83;2.90;;;17.50;1.00;;;;;;5012655;28;20696;-75
2023/09/02 01:25:14;;;;;;;5.80;3.27;;;17.60;1.00;;;;;;5006015;28;20899;-75
2023/09/02 01:27:57;;;;;;;4.70;2.90;;;17.70;1.00;;;;;;5012125;28;20988;-75
2023/09/02 01:30:27;;;;;;;3.93;3.07;;;17.70;1.00;;;;;;5012702;28;20450;-77
2023/09/02 01:32:55;;;;;;;4.27;2.70;;;17.70;1.00;;;;;;5004467;28;20447;-74
2023/09/02 01:35:27;;;;;;;10.23;3.07;;;18.10;1.00;;;;;;5012315;28;20446;-76
2023/09/02 01:37:56;;;;;;;9.93;3.00;;;17.60;1.00;;;;;;5010803;28;20448;-77
2023/09/02 01:40:26;;;;;;;5.77;3.10;;;17.50;1.00;;;;;;5012109;28;20922;-77
2023/09/02 01:42:55;;;;;;;6.20;2.97;;;17.60;1.00;;;;;;5012121;28;20488;-77
2023/09/02 01:45:22;;;;;;;6.10;3.00;;;17.60;1.00;;;;;;5011081;28;20456;-76
2023/09/02 01:47:49;;;;;;;4.57;3.00;;;17.50;1.00;;;;;;5012695;28;20813;-77
2023/09/02 01:50:18;;;;;;;4.93;2.70;;;17.40;1.00;;;;;;5010598;28;20813;-75
2023/09/02 01:52:45;;;;;;;9.20;2.70;;;18.70;1.00;;;;;;5011403;28;20532;-77
2023/09/02 01:55:11;;;;;;;5.13;2.83;;;17.40;1.00;;;;;;5010715;28;20422;-76
2023/09/02 01:57:37;;;;;;;4.77;2.97;;;17.30;1.00;;;;;;5011849;28;20440;-76
2023/09/02 02:00:05;;;;;;;8.13;2.73;;;;;;;;;;5010338;28;20796;-75
2023/09/02 02:02:30;;;;;;;5.30;2.90;;;17.30;1.00;;;;;;5011460;28;20441;-77
2023/09/02 02:05:00;;;;;;;5.93;2.83;;;17.20;1.00;;;;;;5011971;28;20447;-75
2023/09/02 02:07:31;;;;;;;10.60;3.03;;;17.20;1.00;;;;;;5010225;28;20218;-76
2023/09/02 02:09:59;;;;;;;6.80;2.90;;;17.10;1.00;;;;;;5010866;28;20421;-76
2023/09/02 02:12:25;;;;;;;6.50;3.30;;;17.00;1.00;;;;;;5011660;28;20472;-75
2023/09/02 02:14:51;;;;;;;3.83;2.50;;;17.00;1.00;;;;;;5009782;28;20773;-75
2023/09/02 02:17:16;;;;;;;8.50;2.93;;;17.00;1.00;;;;;;5012084;28;20448;-75
2023/09/02 02:19:43;;;;;;;9.33;2.67;;;17.00;1.00;;;;;;5011306;28;20192;-75
2023/09/02 02:22:09;;;;;;;6.13;2.70;;;17.00;1.00;;;;;;5010365;28;20214;-76
2023/09/02 02:24:35;;;;;;;9.70;2.53;;;17.00;1.00;;;;;;5011229;28;20418;-75
2023/09/02 02:27:02;;;;;;;7.03;2.80;;;15.70;1.00;;;;;;5010815;28;20218;-75
2023/09/02 02:29:27;;;;;;;3.17;2.23;;;16.90;1.00;;;;;;5008268;28;20182;-75
2023/09/02 02:31:53;;;;;;;4.30;2.63;;;16.90;1.00;;;;;;5011392;28;20472;-75
2023/09/02 02:34:18;;;;;;;10.23;2.40;;;16.90;1.00;;;;;;5011837;28;20635;-76
2023/09/02 02:36:44;;;;;;;7.27;2.47;;;16.90;1.00;;;;;;5011472;28;20201;-78
2023/09/02 02:39:10;;;;;;;15.90;2.80;;;16.90;1.00;;;;;;5010790;28;20194;-75
2023/09/02 02:41:36;;;;;;;5.20;2.53;;;;;;;;;;5011313;28;20249;-75
2023/09/02 02:44:02;;;;;;;13.27;2.60;;;16.70;1.00;;;;;;5011584;28;20198;-76
2023/09/02 02:46:28;;;;;;;11.00;2.87;;;16.70;1.00;;;;;;5011677;28;20465;-75
2023/09/02 02:48:53;;;;;;;7.17;3.30;;;16.70;1.00;;;;;;5011542;28;20564;-76
2023/09/02 02:51:19;;;;;;;8.03;2.20;;;17.30;1.00;;;;;;5011446;28;20262;-77
2023/09/02 02:53:45;;;;;;;13.73;2.47;;;16.60;1.00;;;;;;5011272;28;20204;-74
2023/09/02 02:56:10;;;;;;;8.17;2.70;;;16.70;1.00;;;;;;5011930;28;20190;-75
2023/09/02 02:58:36;;;;;;;3.57;2.47;;;16.70;1.00;;;;;;5011243;28;20214;-76
2023/09/02 03:01:06;;;;;;;10.20;2.83;;;16.70;1.00;;;;;;5010427;28;20209;-77
2023/09/02 03:03:32;;;;;;;5.13;2.73;;;;;;;;;;5009418;28;20191;-78
2023/09/02 03:06:00;;;;;;;5.57;2.43;;;16.60;1.00;;;;;;5015257;28;20619;-76
2023/09/02 03:08:25;;;;;;;7.30;2.40;;;17.80;1.00;;;;;;5015685;28;20429;-76
2023/09/02 03:10:58;;;;;;;13.40;2.53;;;16.60;1.00;;;;;;5015246;28;20425;-75
2023/09/02 03:13:24;;;;;;;6.63;2.60;;;16.60;1.00;;;;;;5015506;28;20191;-75
2023/09/02 03:15:51;;;;;;;9.03;2.93;;;16.70;1.00;;;;;;5015079;28;20850;-75
2023/09/02 03:18:16;;;;;;;14.83;2.97;;;16.60;1.00;;;;;;5015037;28;20433;-76
2023/09/02 03:20:42;;;;;;;6.80;2.20;;;16.50;1.00;;;;;;5013258;28;20491;-73
2023/09/02 03:23:07;;;;;;;10.13;2.90;;;16.40;1.00;;;;;;5014641;28;20221;-75
2023/09/02 03:25:34;;;;;;;9.80;2.60;;;16.50;1.00;;;;;;5015123;28;20214;-76
2023/09/02 03:28:00;;;;;;;8.90;2.87;;;16.40;1.00;;;;;;5013704;28;20186;-76
2023/09/02 03:30:26;;;;;;;6.93;2.53;;;16.40;1.00;;;;;;5015068;28;20457;-75
2023/09/02 03:32:52;;;;;;;5.63;2.50;;;16.30;1.00;;;;;;5014585;28;20495;-73
2023/09/02 03:35:18;;;;;;;8.43;2.63;;;16.30;1.00;;;;;;5014821;28;20226;-75
2023/09/02 03:37:43;;;;;;;8.73;2.40;;;16.30;1.00;;;;;;5014796;28;20416;-76
2023/09/02 03:40:09;;;;;;;9.20;2.93;;;;;;;;;;5014793;28;20198;-77
2023/09/02 03:42:35;;;;;;;6.90;2.20;;;16.40;1.00;;;;;;5014522;28;20225;-75
2023/09/02 03:45:02;;;;;;;7.97;2.60;;;;;;;;;;5006334;28;20433;-76
2023/09/02 03:47:31;;;;;;;10.70;2.87;;;16.60;1.00;;;;;;5013365;28;20280;-77
2023/09/02 03:49:58;;;;;;;5.50;2.23;;;16.60;1.00;;;;;;5014005;28;20520;-76
2023/09/02 03:52:24;;;;;;;6.47;2.50;;;13.30;1.00;;;;;;5014396;28;21018;-75
2023/09/02 03:54:49;;;;;;;5.10;2.40;;;16.60;1.00;;;;;;5013892;28;20460;-75
2023/09/02 03:57:15;;;;;;;9.30;2.60;;;16.60;1.00;;;;;;5014432;28;20194;-75
2023/09/02 03:59:41;;;;;;;13.60;2.63;;;16.50;1.00;;;;;;5009521;28;20197;-76
2023/09/02 04:02:07;;;;;;;7.30;2.40;;;16.60;1.00;;;;;;5013762;28;20209;-75
2023/09/02 04:04:33;;;;;;;6.67;2.40;;;17.10;1.00;;;;;;5013955;28;20182;-76
2023/09/02 04:06:59;;;;;;;5.73;2.57;;;;;;;;;;5013847;28;20488;-77
2023/09/02 04:09:24;;;;;;;7.20;2.40;;;16.80;1.00;;;;;;5014188;28;20422;-75
2023/09/02 04:11:50;;;;;;;5.33;2.60;;;16.80;1.00;;;;;;5014011;28;20218;-76
2023/09/02 04:14:15;;;;;;;5.63;2.30;;;16.80;1.00;;;;;;5013739;28;20194;-74
2023/09/02 04:16:41;;;;;;;5.40;2.60;;;16.80;1.00;;;;;;5014192;28;20190;-76
2023/09/02 04:19:06;;;;;;;11.07;2.20;;;16.80;1.00;;;;;;5013836;28;20545;-75
2023/09/02 04:21:32;;;;;;;10.10;2.33;;;16.80;1.00;;;;;;5008157;28;20234;-75
2023/09/02 04:23:58;;;;;;;3.57;2.20;;;;;;;;;;5013718;28;20194;-75
2023/09/02 04:26:23;;;;;;;4.40;2.67;;;16.90;1.00;;;;;;5013938;28;20210;-75
2023/09/02 04:28:50;;;;;;;4.00;2.40;;;17.00;1.00;;;;;;5013218;28;20545;-75
2023/09/02 04:31:15;;;;;;;4.40;2.30;;;17.00;1.00;;;;;;5012498;28;20278;-75
2023/09/02 04:33:41;;;;;;;5.73;2.60;;;17.10;1.00;;;;;;5013402;28;20424;-73
2023/09/02 04:36:06;;;;;;;5.07;2.17;;;17.10;1.00;;;;;;5013341;28;20194;-75
2023/09/02 04:38:32;;;;;;;4.47;2.90;;;17.10;1.00;;;;;;5013466;28;20186;-76
2023/09/02 04:41:04;;;;;;;7.17;2.43;;;17.10;1.00;;;;;;5013320;28;20190;-77
2023/09/02 04:43:30;;;;;;;3.87;2.10;;;;;;;;;;5013195;28;20198;-75
2023/09/02 04:46:03;;;;;;;4.93;2.50;;;17.10;1.00;;;;;;5013575;28;20457;-76
2023/09/02 04:48:29;;;;;;;4.40;2.10;;;17.10;1.00;;;;;;5013678;28;20425;-75
2023/09/02 04:50:55;;;;;;;9.10;2.30;;;17.30;1.00;;;;;;5013171;28;20409;-76
2023/09/02 04:53:21;;;;;;;2.80;2.20;;;17.20;1.00;;;;;;5013082;28;20179;-75
2023/09/02 04:55:48;;;;;;;4.80;2.10;;;17.40;1.00;;;;;;5013154;28;20568;-76
2023/09/02 04:58:15;;;;;;;11.40;2.27;;;;;;;;;;5011567;28;20434;-74
2023/09/02 05:00:40;;;;;;;13.13;2.53;;;17.30;1.00;;;;;;5008891;28;20481;-75
2023/09/02 05:03:08;;;;;;;3.73;2.10;;;;;;;;;;5012380;28;20445;-76
2023/09/02 05:05:34;;;;;;;3.67;2.30;;;;;;;;;;5013236;28;20198;-75
2023/09/02 05:08:00;;;;;;;4.30;2.30;;;;;;;;;;5012679;28;20778;-76
2023/09/02 05:10:26;;;;;;;3.37;2.23;;;17.60;1.00;;;;;;5013362;28;20430;-75
2023/09/02 05:12:52;;;;;;;6.37;2.53;;;17.70;1.00;;;;;;5043865;22;20492;-73
2023/09/02 05:15:18;;;;;;;6.80;2.40;;;17.70;1.00;;;;;;5029250;28;20185;-73
2023/09/02 05:17:43;;;;;;;7.30;2.20;;;17.80;1.00;;;;;;5030886;28;20265;-73
2023/09/02 05:20:09;;;;;;;4.80;2.40;;;17.90;1.00;;;;;;5030139;28;20181;-73
2023/09/02 05:22:35;;;;;;;3.53;2.20;;;17.90;1.00;;;;;;5022278;28;20197;-72
2023/09/02 05:25:02;;;;;;;3.60;2.10;;;18.00;1.00;;;;;;5009973;28;20418;-73
2023/09/02 05:27:28;;;;;;;4.93;2.70;;;18.10;1.00;;;;;;5011033;28;20206;-75
2023/09/02 05:29:54;;;;;;;5.37;2.77;;;18.20;1.00;;;;;;5010348;28;20535;-73
2023/09/02 05:32:19;;;;;;;3.70;2.43;;;18.20;1.00;;;;;;5009755;28;20195;-73
2023/09/02 05:34:45;;;;;;;7.17;2.40;;;18.10;1.00;;;;;;5010366;28;20179;-73
2023/09/02 05:37:10;;;;;;;6.10;2.70;;;18.30;1.00;;;;;;5010527;28;20213;-75
2023/09/02 05:39:36;;;;;;;6.20;2.70;;;18.30;1.00;;;;;;5010636;28;20273;-73
2023/09/02 05:42:02;;;;;;;3.80;2.60;;;18.30;1.00;;;;;;5010355;28;20244;-73
2023/09/02 05:44:28;;;;;;;4.00;2.53;;;18.40;1.00;;;;;;5009171;28;20241;-73
2023/09/02 05:46:53;;;;;;;5.90;2.80;;;18.50;1.00;;;;;;5009063;28;20512;-71
2023/09/02 05:49:19;;;;;;;7.47;3.10;;;18.50;1.00;;;;;;5010299;28;20190;-72
2023/09/02 05:51:44;;;;;;;7.60;3.33;;;18.60;1.00;;;;;;5010098;28;20183;-71
2023/09/02 05:54:10;;;;;;;4.83;2.80;;;18.60;1.00;;;;;;5010033;28;20599;-73
2023/09/02 05:56:36;;;;;;;4.33;2.90;;;18.80;1.00;;;;;;5010454;28;20182;-75
2023/09/02 05:59:02;;;;;;;8.60;3.33;;;18.90;1.00;;;;;;5009300;28;20205;-75
2023/09/02 06:01:28;;;;;;;5.60;2.83;;;19.00;1.00;;;;;;5010403;28;20429;-76
2023/09/02 06:03:53;;;;;;;12.43;3.37;;;19.00;1.00;;;;;;5009423;28;20499;-73
2023/09/02 06:06:19;;;;;;;12.20;3.23;;;19.10;1.00;;;;;;5008577;28;20569;-74
2023/09/02 06:08:44;;;;;;;9.37;3.27;;;19.20;1.00;;;;;;5003015;28;20207;-73
2023/09/02 06:11:10;;;;;;;12.33;4.80;;;19.20;1.00;;;;;;5007766;28;20604;-76
2023/09/02 06:13:35;;;;;;;23.07;7.73;;;19.30;1.00;;;;;;5009918;28;20325;-73
2023/09/02 06:16:03;;;;;;;18.13;6.77;;;19.30;1.00;;;;;;5009611;28;20635;-73
2023/09/02 06:18:29;;;;;;;18.10;6.47;;;19.40;1.00;;;;;;5007853;28;20193;-73
2023/09/02 06:20:55;;;;;;;20.73;7.83;;;19.40;1.00;;;;;;5005871;28;20426;-73
2023/09/02 06:23:22;;;;;;;12.90;6.60;;;19.40;1.00;;;;;;5009769;28;20499;-74
2023/09/02 06:25:58;;;;;;;19.83;9.13;;;19.50;1.00;;;;;;5009912;28;20206;-73
2023/09/02 06:28:24;;;;;;;18.47;8.03;;;19.50;1.00;;;;;;5018136;28;20428;-73
2023/09/02 06:30:50;;;;;;;28.70;9.20;;;19.60;1.00;;;;;;5009860;28;20467;-73
2023/09/02 06:33:16;;;;;;;22.17;7.80;;;19.70;1.00;;;;;;5009514;28;20924;-73
2023/09/02 06:35:42;;;;;;;40.47;16.73;;;19.90;1.00;;;;;;5009926;28;20760;-72
2023/09/02 06:38:07;;;;;;;42.50;16.50;;;20.10;1.00;;;;;;5012305;28;20523;-73
2023/09/02 06:40:33;;;;;;;48.13;18.60;;;20.20;1.00;;;;;;5013979;28;20182;-72
2023/09/02 06:42:58;;;;;;;41.53;15.27;;;20.20;1.00;;;;;;5013512;28;20234;-73
2023/09/02 06:45:25;;;;;;;27.20;13.47;;;20.00;1.00;;;;;;5013645;28;20186;-73
2023/09/02 06:47:51;;;;;;;26.20;11.00;;;20.20;1.00;;;;;;5013916;28;20713;-73
2023/09/02 06:50:16;;;;;;;33.40;10.80;;;20.40;1.00;;;;;;5013410;28;20509;-73
2023/09/02 06:52:42;;;;;;;22.07;9.70;;;20.40;1.00;;;;;;5013591;28;20218;-70
2023/09/02 06:55:08;;;;;;;17.10;8.30;;;20.40;1.00;;;;;;5011677;28;20810;-73
2023/09/02 06:57:33;;;;;;;21.83;8.70;;;20.40;1.00;;;;;;5014207;28;20237;-73
2023/09/02 06:59:59;;;;;;;19.40;7.20;;;20.50;1.00;;;;;;5007429;28;20209;-73
2023/09/02 07:02:24;;;;;;;15.57;6.60;;;20.60;1.00;;;;;;5013823;28;20676;-73
2023/09/02 07:04:50;;;;;;;14.07;7.10;;;20.60;1.00;;;;;;5013635;28;20190;-72
2023/09/02 07:07:16;;;;;;;20.00;6.63;;;20.80;1.00;;;;;;5013506;28;20288;-73
2023/09/02 07:09:42;;;;;;;15.27;7.43;;;21.00;1.00;;;;;;5013590;28;20214;-73
2023/09/02 07:12:08;;;;;;;13.90;5.63;;;21.10;1.00;;;;;;5013173;28;20504;-73
2023/09/02 07:14:33;;;;;;;9.00;3.80;;;21.40;1.00;;;;;;5012884;28;20179;-70
2023/09/02 07:16:59;;;;;;;9.33;4.20;;;21.80;1.00;;;;;;5011382;28;20186;-74
2023/09/02 07:19:25;;;;;;;13.43;4.37;;;21.90;1.00;;;;;;5012968;28;20174;-72
2023/09/02 07:21:50;;;;;;;14.10;5.50;;;22.30;1.00;;;;;;5012922;28;20190;-73
2023/09/02 07:24:16;;;;;;;10.30;4.90;;;22.30;1.00;;;;;;5012527;28;20186;-74
2023/09/02 07:26:42;;;;;;;12.10;5.33;;;22.30;1.00;;;;;;5012888;28;20241;-73
2023/09/02 07:29:07;;;;;;;12.73;4.20;;;24.90;1.00;;;;;;5012099;28;20186;-76
2023/09/02 07:31:33;;;;;;;17.80;4.30;;;23.00;1.00;;;;;;5013033;28;20182;-73
2023/09/02 07:33:59;;;;;;;6.47;3.27;;;23.70;1.00;;;;;;5012160;28;20664;-73
2023/09/02 07:36:24;;;;;;;8.73;3.20;;;24.70;1.00;;;;;;5012852;28;20186;-74
2023/09/02 07:38:50;;;;;;;11.90;3.07;;;25.70;1.00;;;;;;5012730;28;20182;-75
2023/09/02 07:41:15;;;;;;;11.63;3.00;;;26.30;1.00;;;;;;5012178;28;20193;-74
2023/09/02 07:43:41;;;;;;;7.13;3.40;;;26.50;1.00;;;;;;5012387;28;20206;-73
2023/09/02 07:46:07;;;;;;;5.90;3.03;;;26.60;1.00;;;;;;5011675;28;20216;-75
2023/09/02 07:48:32;;;;;;;4.70;2.40;;;26.50;1.00;;;;;;5012189;28;20181;-76
2023/09/02 07:50:58;;;;;;;6.70;2.53;;;26.50;1.00;;;;;;5011095;28;20178;-74
2023/09/02 07:53:23;;;;;;;5.73;2.70;;;27.10;1.00;;;;;;5012022;28;20661;-72
2023/09/02 07:55:49;;;;;;;5.03;2.73;;;27.80;1.00;;;;;;5010745;28;20184;-74
2023/09/02 07:58:14;;;;;;;8.63;2.70;;;28.30;1.00;;;;;;5011678;28;20343;-73
2023/09/02 08:00:40;;;;;;;5.97;2.60;;;28.60;1.00;;;;;;5010697;28;20193;-74
2023/09/02 08:03:06;;;;;;;5.07;2.70;;;29.20;1.00;;;;;;5011621;28;20206;-74
2023/09/02 08:05:31;;;;;;;11.48;3.53;;;29.60;1.00;;;;;;5010711;28;20190;-75
2023/09/02 08:07:57;;;;;;;8.65;3.70;;;30.10;1.00;;;;;;5012220;28;20193;-72
2023/09/02 08:10:23;;;;;;;8.50;3.92;;;30.50;1.00;;;;;;5011820;28;20208;-74
2023/09/02 08:12:48;;;;;;;7.63;3.60;;;30.50;1.00;;;;;;5012034;28;20719;-74
2023/09/02 08:15:14;;;;;;;5.78;3.10;;;30.30;1.00;;;;;;5011254;28;20188;-74
2023/09/02 08:17:41;;;;;;;7.10;3.33;;;30.40;1.00;;;;;;5010824;28;20220;-74
2023/09/02 08:20:11;;;;;;;6.70;3.10;;;30.40;1.00;;;;;;5011650;28;20190;-75
2023/09/02 08:22:36;;;;;;;4.22;2.70;;;30.70;1.00;;;;;;5011827;28;20202;-75
2023/09/02 08:25:03;;;;;;;4.35;2.30;;;30.90;1.00;;;;;;5008217;28;20212;-76
2023/09/02 08:27:29;;;;;;;4.70;2.38;;;31.10;1.00;;;;;;5011709;28;20263;-74
2023/09/02 08:29:54;;;;;;;8.82;3.25;;;31.40;1.00;;;;;;5011433;28;20667;-76
2023/09/02 08:32:20;;;;;;;4.78;1.90;;;31.90;1.00;;;;;;5011537;28;20244;-75
2023/09/02 08:34:45;;;;;;;4.22;2.13;;;32.40;1.00;;;;;;5011638;28;20186;-75
2023/09/02 08:37:11;;;;;;;6.57;1.90;;;32.80;1.00;;;;;;5011529;28;20221;-77
2023/09/02 08:39:38;;;;;;;3.05;1.90;;;33.10;1.00;;;;;;5011614;28;20185;-76
2023/09/02 08:42:05;;;;;;;2.72;1.80;;;33.60;1.00;;;;;;5011346;28;20213;-74
2023/09/02 08:44:35;;;;;;;4.00;1.90;;;33.60;1.00;;;;;;5002365;28;20337;-75
2023/09/02 08:47:03;;;;;;;4.13;2.00;;;34.20;1.00;;;;;;5011804;28;20236;-75
2023/09/02 08:49:29;;;;;;;5.45;2.08;;;34.70;1.00;;;;;;5003483;28;20204;-76
2023/09/02 08:51:55;;;;;;;3.72;1.77;;;35.10;1.00;;;;;;5011303;28;20672;-75
2023/09/02 08:54:21;;;;;;;3.60;1.70;;;35.10;1.00;;;;;;5011199;28;20597;-75
2023/09/02 08:56:48;;;;;;;5.70;1.95;;;35.00;1.00;;;;;;5009897;28;20186;-75
2023/09/02 08:59:14;;;;;;;3.83;1.80;;;35.30;1.00;;;;;;5002942;28;20214;-76
2023/09/02 09:01:45;;;;;;;7.25;2.03;;;35.80;1.00;;;;;;5010847;28;20217;-76
2023/09/02 09:04:13;;;;;;;2.70;1.70;;;35.90;1.00;;;;;;5009437;28;20197;-76
2023/09/02 09:06:40;;;;;;;3.30;1.80;;;36.10;1.00;;;;;;5009853;28;20201;-74
2023/09/02 09:09:08;;;;;;;4.68;1.60;;;36.10;1.00;;;;;;5011078;28;20189;-75
2023/09/02 09:11:37;;;;;;;6.38;1.88;;;36.60;1.00;;;;;;5001967;28;20656;-77
2023/09/02 09:14:05;;;;;;;5.43;2.40;;;36.50;1.00;;;;;;5010702;28;20684;-75
2023/09/02 09:16:36;;;;;;;4.57;1.80;;;36.90;1.00;;;;;;5010547;28;20233;-76
2023/09/02 09:19:02;;;;;;;8.55;5.68;;;37.20;1.00;;;;;;5010939;28;20216;-72
2023/09/02 09:21:28;;;;;;;5.15;1.88;;;36.90;1.00;;;;;;5010525;28;20213;-75
2023/09/02 09:23:53;;;;;;;2.85;1.50;;;36.90;1.00;;;;;;5010599;28;20201;-77
2023/09/02 09:26:21;;;;;;;2.80;1.40;;;37.20;1.00;;;;;;5009075;28;20240;-77
2023/09/02 09:28:53;;;;;;;4.32;1.77;;;37.30;1.00;;;;;;5011055;28;20588;-75
2023/09/02 09:31:20;;;;;;;3.20;1.52;;;37.60;1.00;;;;;;5009131;28;20186;-75
2023/09/02 09:33:49;;;;;;;2.92;1.73;;;38.00;1.00;;;;;;5010634;28;20197;-77
2023/09/02 09:36:14;;;;;;;4.18;1.80;;;38.30;1.00;;;;;;5010272;28;20184;-75
2023/09/02 09:38:40;;;;;;;3.95;1.42;;;38.60;1.00;;;;;;5010614;28;20190;-76
2023/09/02 09:41:09;;;;;;;4.53;1.70;;;39.00;1.00;;;;;;5010537;28;20185;-75
2023/09/02 09:43:34;;;;;;;2.50;1.40;;;39.30;1.00;;;;;;5001137;28;20214;-76
2023/09/02 09:46:00;;;;;;;3.70;1.65;;;39.70;1.00;;;;;;5010228;28;20732;-77
2023/09/02 09:48:25;;;;;;;5.65;1.67;;;40.00;1.00;;;;;;5008489;28;20190;-76
2023/09/02 09:50:52;;;;;;;3.30;1.73;;;40.10;1.00;;;;;;5009793;28;20201;-78
2023/09/02 09:53:17;;;;;;;3.00;1.60;;;40.20;1.00;;;;;;5009875;28;20209;-76
2023/09/02 09:55:43;;;;;;;3.20;1.45;;;40.30;1.00;;;;;;5010217;28;20186;-76
2023/09/02 09:58:09;;;;;;;4.28;1.60;;;40.10;1.00;;;;;;5010520;28;20197;-76
2023/09/02 10:00:34;;;;;;;2.50;1.50;;;39.80;1.00;;;;;;5001883;28;20240;-78
2023/09/02 10:03:00;;;;;;;3.28;1.70;;;40.00;1.00;;;;;;5008910;28;20353;-75
2023/09/02 10:05:28;;;;;;;3.33;1.85;;;40.10;1.00;;;;;;5009698;28;20181;-75
2023/09/02 10:08:02;;;;;;;3.28;1.70;;;40.10;1.00;;;;;;5010304;28;20182;-76
2023/09/02 10:10:29;;;;;;;4.85;1.48;;;39.80;1.00;;;;;;5009744;28;20182;-76
2023/09/02 10:12:57;;;;;;;6.65;1.60;;;39.70;1.00;;;;;;5008683;28;20233;-76
2023/09/02 10:15:26;;;;;;;4.18;1.70;;;40.20;1.00;;;;;;5009610;28;20248;-75
2023/09/02 10:18:00;;;;;;;3.65;1.50;;;40.70;1.00;;;;;;5010098;28;20174;-76
2023/09/02 10:20:28;;;;;;;2.83;1.50;;;41.50;1.00;;;;;;5008566;28;20522;-75
2023/09/02 10:22:54;;;;;;;2.70;1.50;;;41.20;1.00;;;;;;5008180;28;20193;-78
2023/09/02 10:25:24;;;;;;;3.78;1.80;;;41.60;1.00;;;;;;5008951;28;20185;-76
2023/09/02 10:28:06;;;;;;;4.13;1.73;;;42.30;1.00;;;;;;5009874;28;20624;-77
2023/09/02 10:30:42;;;;;;;3.92;2.00;;;42.80;1.00;;;;;;5009391;28;20178;-76
2023/09/02 10:33:31;;;;;;;3.70;1.90;;;42.90;1.00;;;;;;5008392;28;20206;-78
2023/09/02 10:36:00;;;;;;;3.20;1.77;;;43.10;1.00;;;;;;5004287;28;20186;-76
2023/09/02 10:38:28;;;;;;;3.17;1.63;;;43.00;1.00;;;;;;5009623;28;20584;-76
2023/09/02 10:41:03;;;;;;;3.67;1.67;;;43.00;1.00;;;;;;5009495;28;20328;-76
2023/09/02 10:43:29;;;;;;;2.80;1.80;;;43.20;1.00;;;;;;5009364;28;20196;-77
2023/09/02 10:45:55;;;;;;;6.50;1.80;;;43.50;1.00;;;;;;5009693;28;20220;-78
2023/09/02 10:48:20;;;;;;;4.40;1.70;;;43.30;1.00;;;;;;5009694;28;20185;-77
2023/09/02 10:50:46;;;;;;;3.00;1.70;;;43.40;1.00;;;;;;5009665;28;20182;-74
2023/09/02 10:53:12;;;;;;;6.68;1.90;;;43.80;1.00;;;;;;5009782;28;20566;-76
2023/09/02 10:55:57;;;;;;;2.90;1.60;;;43.90;1.00;;;;;;5009019;28;20182;-74
2023/09/02 10:58:23;;;;;;;2.95;1.80;;;43.50;1.00;;;;;;5008813;28;20181;-76
2023/09/02 11:00:51;;;;;;;4.13;1.50;;;43.50;1.00;;;;;;5009574;28;20675;-76
2023/09/02 11:03:46;;;;;;;3.83;1.50;;;43.60;1.00;;;;;;5009111;28;20229;-75
2023/09/02 11:06:15;;;;;;;4.32;1.60;;;43.90;1.00;;;;;;5008404;28;20707;-76
2023/09/02 11:08:53;;;;;;;3.30;1.52;;;44.20;1.00;;;;;;5009196;28;20178;-79
2023/09/02 11:11:19;;;;;;;11.57;1.88;;;44.50;1.00;;;;;;5007840;28;20448;-76
2023/09/02 11:14:07;;;;;;;3.28;1.77;;;44.30;1.00;;;;;;5008609;28;20267;-76
2023/09/02 11:16:33;;;;;;;4.20;1.63;;;43.50;1.00;;;;;;5008929;28;20194;-76
2023/09/02 11:19:00;;;;;;;3.00;1.90;;;42.60;1.00;;;;;;5009533;28;20244;-76
2023/09/02 11:21:42;;;;;;;3.47;1.50;;;42.70;1.00;;;;;;5009428;28;20205;-76
2023/09/02 11:24:17;;;;;;;3.05;1.67;;;43.60;1.00;;;;;;5012149;28;20186;-76
2023/09/02 11:26:57;;;;;;;2.97;1.60;;;44.30;1.00;;;;;;5019883;28;20209;-76
2023/09/02 11:29:24;;;;;;;2.90;1.60;;;44.50;1.00;;;;;;5012952;28;20185;-76
2023/09/02 11:32:03;;;;;;;4.93;1.75;;;44.70;1.00;;;;;;5012807;28;20181;-76
2023/09/02 11:34:30;;;;;;;5.13;2.05;;;44.80;1.00;;;;;;5012646;28;20269;-76
2023/09/02 11:36:58;;;;;;;2.97;1.80;;;45.10;1.00;;;;;;5011691;28;20724;-76
2023/09/02 11:39:31;;;;;;;3.30;1.70;;;45.60;1.00;;;;;;5012279;28;20233;-77
2023/09/02 11:42:11;;;;;;;5.72;1.90;;;46.00;1.00;;;;;;5012695;28;20206;-77
2023/09/02 11:44:38;;;;;;;3.10;1.60;;;45.60;1.00;;;;;;5012207;28;20200;-76
2023/09/02 11:47:04;;;;;;;4.40;1.77;;;45.40;1.00;;;;;;5012055;28;20280;-77
2023/09/02 11:49:30;;;;;;;2.80;1.70;;;45.90;1.00;;;;;;5012833;28;20177;-75
2023/09/02 11:51:56;;;;;;;4.53;3.03;;;46.20;1.00;;;;;;5012277;28;20695;-76
2023/09/02 11:54:22;;;;;;;6.78;2.00;;;45.40;1.00;;;;;;5010794;28;20553;-76
2023/09/02 11:57:00;;;;;;;2.72;1.73;;;43.80;1.00;;;;;;5012549;28;20191;-78
2023/09/02 11:59:26;;;;;;;3.70;1.63;;;41.90;1.00;;;;;;5010164;28;20186;-76
2023/09/02 12:02:07;;;;;;;3.47;1.80;;;42.50;1.00;;;;;;5012269;28;20281;-78
2023/09/02 12:04:39;;;;;;;4.55;1.90;;;42.70;1.00;;;;;;5011640;28;20224;-75
2023/09/02 12:07:09;;;;;;;3.20;1.50;;;43.90;1.00;;;;;;5012668;28;20225;-75
2023/09/02 12:09:36;;;;;;;3.75;1.60;;;45.30;1.00;;;;;;5011793;28;20186;-76
2023/09/02 12:12:02;;;;;;;3.67;1.70;;;45.60;1.00;;;;;;5012169;28;20292;-76
2023/09/02 12:14:28;;;;;;;3.10;1.52;;;45.80;1.00;;;;;;5011831;28;20186;-76
2023/09/02 12:17:04;;;;;;;3.15;1.60;;;46.20;1.00;;;;;;5011931;28;20247;-76
2023/09/02 12:19:29;;;;;;;4.72;1.70;;;46.50;1.00;;;;;;5008701;28;20190;-76
2023/09/02 12:21:55;;;;;;;4.07;2.03;;;46.60;1.00;;;;;;5011896;28;20576;-77
2023/09/02 12:24:21;;;;;;;3.58;1.73;;;46.70;1.00;;;;;;5012080;28;20185;-76
2023/09/02 12:26:48;;;;;;;2.95;1.70;;;46.60;1.00;;;;;;5011762;28;20293;-76
2023/09/02 12:29:17;;;;;;;3.25;1.90;;;46.00;1.00;;;;;;5010312;28;20189;-76
2023/09/02 12:31:56;;;;;;;3.20;1.90;;;46.20;1.00;;;;;;5011335;28;20182;-75
2023/09/02 12:34:29;;;;;;;2.92;1.70;;;46.30;1.00;;;;;;5010986;28;20186;-77
2023/09/02 12:36:54;;;;;;;4.70;1.90;;;46.20;1.00;;;;;;5008000;28;20427;-76
2023/09/02 12:39:24;;;;;;;3.33;1.70;;;46.20;1.00;;;;;;5009874;28;20581;-75
2023/09/02 12:41:50;;;;;;;2.90;1.70;;;44.20;1.00;;;;;;5008208;28;20174;-79
2023/09/02 12:44:19;;;;;;;3.92;1.90;;;44.20;1.00;;;;;;5010726;28;20208;-78
2023/09/02 12:46:47;;;;;;;4.60;2.00;;;44.40;1.00;;;;;;5008403;28;20951;-76
2023/09/02 12:49:16;;;;;;;3.88;1.80;;;45.20;1.00;;;;;;5006381;28;20245;-76
2023/09/02 12:51:43;;;;;;;3.10;1.70;;;45.80;1.00;;;;;;5004020;28;20471;-77
2023/09/02 12:54:13;;;;;;;4.75;1.90;;;45.80;1.00;;;;;;5008343;28;20702;-79
2023/09/02 12:56:39;;;;;;;3.00;1.80;;;45.80;1.00;;;;;;5008285;28;20901;-76
2023/09/02 12:59:06;;;;;;;3.45;1.80;;;45.40;1.00;;;;;;5006279;28;20337;-76